Time;durP1;ratioP1;P1;durP2;ratioP2;P2;SDS_P1;SDS_P2;PMS_P1;PMS_P2;Temp;Humidity;BMP_temperature;BMP_pressure;BME280_temperature;BME280_humidity;BME280_pressure;Samples;Min_cycle;Max_cycle;Signal;HPM_P1;HPM_P2
2022/03/04 09:48:48;;;;;;;68.25;32.33;;;;;;;;;;5067635;28;20391;-66
2022/03/04 09:51:15;;;;;;;62.55;32.78;;;;;;;;;;5058431;28;20051;-67
2022/03/04 09:53:41;;;;;;;61.80;31.33;;;;;;;;;;5057788;28;20108;-64
2022/03/04 09:56:07;;;;;;;57.42;31.05;;;;;;;;;;5056460;28;20025;-64
2022/03/04 09:58:33;;;;;;;61.78;30.90;;;;;;;;;;5058025;28;20094;-66
2022/03/04 10:00:59;;;;;;;56.58;29.85;;;;;;;;;;5057475;28;20021;-64
2022/03/04 10:03:31;;;;;;;60.65;31.17;;;;;;;;;;5056199;28;20029;-66
2022/03/04 10:06:00;;;;;;;61.05;30.23;;;;;;;;;;5057217;28;20032;-63
2022/03/04 10:08:26;;;;;;;55.50;30.60;;;;;;;;;;5059375;28;20068;-65
2022/03/04 10:10:53;;;;;;;56.47;28.60;;;;;;;;;;5055096;28;20029;-65
2022/03/04 10:13:39;;;;;;;54.20;30.00;;;;;;;;;;5057147;28;20028;-64
2022/03/04 10:16:05;;;;;;;53.00;27.80;;;;;;;;;;5055755;28;20065;-66
2022/03/04 10:18:31;;;;;;;63.03;34.88;;;;;;;;;;5055443;28;20026;-61
2022/03/04 10:20:57;;;;;;;52.90;29.80;;;;;;;;;;5057603;28;20041;-64
2022/03/04 10:23:26;;;;;;;53.28;29.95;;;;;;;;;;5056008;28;20388;-64
2022/03/04 10:25:56;;;;;;;52.35;28.38;;;;;;;;;;5057912;28;20029;-64
2022/03/04 10:28:23;;;;;;;52.72;27.63;;;;;;;;;;5057844;28;20051;-64
2022/03/04 10:30:50;;;;;;;51.10;27.77;;;;;;;;;;5055390;28;20025;-62
2022/03/04 10:33:16;;;;;;;49.90;26.08;;;;;;;;;;5052628;28;20030;-63
2022/03/04 10:35:43;;;;;;;56.08;27.88;;;;;;;;;;5049662;28;20025;-62
2022/03/04 10:38:20;;;;;;;50.80;26.67;;;;;;;;;;5052868;28;20033;-62
2022/03/04 10:40:47;;;;;;;48.83;26.33;;;;;;;;;;5054511;28;20024;-63
2022/03/04 10:43:16;;;;;;;51.00;27.92;;;;;;;;;;5055525;28;20127;-63
2022/03/04 10:45:45;;;;;;;53.92;29.80;;;;;;;;;;5053528;28;20024;-63
2022/03/04 10:48:17;;;;;;;52.47;29.20;;;;;;;;;;5056051;28;20051;-63
2022/03/04 10:50:44;;;;;;;56.47;30.83;;;;;;;;;;5053615;28;20089;-62
2022/03/04 10:53:11;;;;;;;52.03;28.52;;;;;;;;;;5056051;28;20096;-62
2022/03/04 10:55:40;;;;;;;51.03;28.13;;;;;;;;;;5057281;28;20426;-63
2022/03/04 10:58:07;;;;;;;56.10;29.23;;;;;;;;;;5054168;28;20079;-63
2022/03/04 11:00:37;;;;;;;55.97;29.13;;;;;;;;;;5042054;28;20028;-63
2022/03/04 11:03:05;;;;;;;55.53;30.13;;;;;;;;;;5038432;28;20029;-60
2022/03/04 11:05:32;;;;;;;50.22;26.88;;;;;;;;;;5036007;28;20469;-63
2022/03/04 11:07:58;;;;;;;50.50;28.98;;;;;;;;;;5033232;28;20068;-63
2022/03/04 11:10:25;;;;;;;56.63;30.05;;;;;;;;;;5035398;28;20427;-62
2022/03/04 11:12:53;;;;;;;49.55;28.25;;;;;;;;;;5033172;28;20033;-62
2022/03/04 11:15:19;;;;;;;50.10;28.75;;;;;;;;;;5031759;28;20381;-63
2022/03/04 11:17:46;;;;;;;50.10;27.67;;;;;;;;;;5032949;28;20477;-60
2022/03/04 11:20:12;;;;;;;54.53;29.17;;;;;;;;;;5032743;28;20048;-62
2022/03/04 11:22:40;;;;;;;51.35;29.40;;;;;;;;;;5031523;28;20439;-60
2022/03/04 11:25:07;;;;;;;49.05;28.38;;;;;;;;;;5032852;28;20025;-61
2022/03/04 11:27:37;;;;;;;53.15;28.10;;;;;;;;;;5033239;28;20037;-62
2022/03/04 11:30:04;;;;;;;53.45;28.80;;;;;;;;;;5032731;28;20025;-61
2022/03/04 11:32:30;;;;;;;47.40;26.40;;;;;;;;;;5033309;28;20021;-62
2022/03/04 11:34:57;;;;;;;45.03;26.17;;;;;;;;;;5033113;28;20099;-63
2022/03/04 11:37:23;;;;;;;53.10;27.55;;;;;;;;;;5032849;28;20025;-64
2022/03/04 11:40:33;;;;;;;49.30;27.50;;;;;;;;;;5032190;28;20048;-63
2022/03/04 11:42:57;;;;;;;46.30;25.98;;;;;;;;;;5032550;28;20043;-64
2022/03/04 11:45:33;;;;;;;47.05;26.90;;;;;;;;;;5028467;28;20032;-63
2022/03/04 11:48:10;;;;;;;45.83;26.83;;;;;;;;;;5027449;28;20057;-62
2022/03/04 11:50:58;;;;;;;48.00;27.00;;;;;;;;;;5023344;28;20026;-61
2022/03/04 11:53:25;;;;;;;43.40;25.52;;;;;;;;;;5032483;28;20053;-62
2022/03/04 11:56:14;;;;;;;45.92;26.90;;;;;;;;;;5032569;28;20065;-63
2022/03/04 11:58:52;;;;;;;44.80;27.00;;;;;;;;;;5032361;28;20108;-63
2022/03/04 12:01:18;;;;;;;47.13;26.20;;;;;;;;;;5032177;28;20036;-62
2022/03/04 12:04:03;;;;;;;41.38;24.23;;;;;;;;;;5032378;28;20381;-62
2022/03/04 12:06:29;;;;;;;43.15;25.85;;;;;;;;;;5032071;28;20033;-63
2022/03/04 12:08:58;;;;;;;45.83;25.05;;;;;;;;;;5032333;28;20119;-63
2022/03/04 12:11:24;;;;;;;44.35;25.35;;;;;;;;;;5031147;28;20238;-64
2022/03/04 12:14:06;;;;;;;40.85;25.10;;;;;;;;;;5031816;28;20032;-63
2022/03/04 12:16:49;;;;;;;44.35;25.27;;;;;;;;;;5032034;28;20116;-62
2022/03/04 12:19:31;;;;;;;41.30;24.73;;;;;;;;;;5031913;28;20033;-62
2022/03/04 12:21:58;;;;;;;46.67;25.75;;;;;;;;;;5031906;28;20438;-62
2022/03/04 12:24:33;;;;;;;39.33;23.73;;;;;;;;;;5031614;28;20028;-63
2022/03/04 12:27:00;;;;;;;47.08;25.13;;;;;;;;;;5031824;28;20029;-64
2022/03/04 12:29:47;;;;;;;45.90;25.30;;;;;;;;;;5031806;28;20018;-63
2022/03/04 12:32:14;;;;;;;41.50;24.75;;;;;;;;;;5031340;28;20013;-62
2022/03/04 12:34:52;;;;;;;43.22;25.90;;;;;;;;;;5031482;28;20033;-61
2022/03/04 12:37:19;;;;;;;42.20;24.13;;;;;;;;;;5031072;28;20041;-64
2022/03/04 12:39:50;;;;;;;43.75;23.50;;;;;;;;;;5030148;28;20054;-64
2022/03/04 12:42:17;;;;;;;42.75;24.05;;;;;;;;;;5031136;28;20116;-64
2022/03/04 12:44:45;;;;;;;37.90;23.17;;;;;;;;;;5030322;28;20362;-62
2022/03/04 12:47:11;;;;;;;42.33;24.02;;;;;;;;;;5031034;28;20625;-61
2022/03/04 12:49:41;;;;;;;42.35;24.83;;;;;;;;;;5031562;28;20044;-64
2022/03/04 12:52:08;;;;;;;43.33;24.77;;;;;;;;;;5030919;28;20025;-62
2022/03/04 12:54:34;;;;;;;40.47;23.23;;;;;;;;;;5031241;28;20496;-64
2022/03/04 12:57:01;;;;;;;66.07;37.35;;;;;;;;;;5031641;28;20377;-62
2022/03/04 12:59:28;;;;;;;48.40;30.15;;;;;;;;;;5031591;28;20041;-65
2022/03/04 13:01:55;;;;;;;47.70;25.35;;;;;;;;;;5031329;28;20276;-61
2022/03/04 13:04:21;;;;;;;46.25;24.98;;;;;;;;;;5031659;28;20033;-61
2022/03/04 13:06:55;;;;;;;40.65;22.27;;;;;;;;;;5031382;28;20420;-63
2022/03/04 13:09:21;;;;;;;36.63;22.60;;;;;;;;;;5031334;28;20025;-63
2022/03/04 13:11:47;;;;;;;38.13;22.55;;;;;;;;;;5031115;28;20105;-60
2022/03/04 13:14:15;;;;;;;35.53;21.50;;;;;;;;;;5033282;28;20033;-62
2022/03/04 13:16:45;;;;;;;36.95;21.23;;;;;;;;;;5039007;28;20022;-62
2022/03/04 13:19:13;;;;;;;36.03;22.25;;;;;;;;;;5034666;28;20435;-64
2022/03/04 13:21:46;;;;;;;41.90;23.23;;;;;;;;;;5030757;28;20104;-64
2022/03/04 13:24:12;;;;;;;;;;;;;;;;;;5031326;28;20481;-64
2022/03/04 13:26:38;;;;;;;40.70;20.98;;;;;;;;;;5030967;28;19912;-65
2022/03/04 13:29:04;;;;;;;38.85;22.17;;;;;;;;;;5030536;28;20025;-64
2022/03/04 13:31:35;;;;;;;43.40;23.85;;;;;;;;;;5037364;28;20021;-62
2022/03/04 13:34:03;;;;;;;44.97;24.50;;;;;;;;;;5036314;28;20056;-63
2022/03/04 13:36:43;;;;;;;39.88;21.48;;;;;;;;;;5038844;28;20044;-63
2022/03/04 13:39:13;;;;;;;46.30;23.98;;;;;;;;;;5038836;28;20057;-62
2022/03/04 13:41:39;;;;;;;41.80;20.08;;;;;;;;;;5036113;28;20109;-62
2022/03/04 13:44:06;;;;;;;65.65;33.63;;;;;;;;;;5039549;28;20438;-63
2022/03/04 13:46:32;;;;;;;59.40;30.25;;;;;;;;;;5039916;28;20513;-68
2022/03/04 13:48:59;;;;;;;51.08;27.65;;;;;;;;;;5038277;28;20037;-62
2022/03/04 13:51:25;;;;;;;45.53;24.10;;;;;;;;;;5040068;28;20018;-63
2022/03/04 13:53:56;;;;;;;45.47;24.48;;;;;;;;;;5040202;28;20099;-63
2022/03/04 13:56:24;;;;;;;40.38;23.00;;;;;;;;;;5039992;28;20017;-63
2022/03/04 13:58:57;;;;;;;45.00;25.10;;;;;;;;;;5035346;28;20053;-62
2022/03/04 14:01:23;;;;;;;48.08;26.58;;;;;;;;;;5038030;28;20025;-63
2022/03/04 14:03:50;;;;;;;43.88;25.67;;;;;;;;;;5040233;28;20028;-64
2022/03/04 14:06:20;;;;;;;41.53;24.42;;;;;;;;;;5038683;28;20017;-63
2022/03/04 14:08:46;;;;;;;43.38;22.85;;;;;;;;;;5038155;28;20436;-64
2022/03/04 14:11:13;;;;;;;40.67;23.65;;;;;;;;;;5039812;28;20033;-63
2022/03/04 14:13:40;;;;;;;48.13;24.70;;;;;;;;;;5035560;28;20491;-64
2022/03/04 14:16:07;;;;;;;46.53;25.10;;;;;;;;;;5030404;28;20036;-64
2022/03/04 14:18:34;;;;;;;44.90;25.23;;;;;;;;;;5030175;28;20042;-65
2022/03/04 14:21:05;;;;;;;45.78;24.95;;;;;;;;;;5029699;28;20109;-63
2022/03/04 14:23:34;;;;;;;49.25;27.77;;;;;;;;;;5029725;28;20022;-64
2022/03/04 14:26:01;;;;;;;48.45;27.55;;;;;;;;;;5030082;28;20084;-64
2022/03/04 14:28:27;;;;;;;43.53;25.15;;;;;;;;;;5030298;28;20037;-64
2022/03/04 14:30:53;;;;;;;49.28;24.98;;;;;;;;;;5037189;28;20427;-63
2022/03/04 14:33:19;;;;;;;48.22;26.50;;;;;;;;;;5039441;28;20028;-64
2022/03/04 14:35:50;;;;;;;46.78;26.15;;;;;;;;;;5042193;28;20029;-64
2022/03/04 14:38:18;;;;;;;54.80;29.38;;;;;;;;;;5039948;28;20021;-63
2022/03/04 14:40:44;;;;;;;48.63;26.05;;;;;;;;;;5042142;28;20029;-64
2022/03/04 14:43:10;;;;;;;39.30;22.83;;;;;;;;;;5043390;28;20025;-64
2022/03/04 14:45:37;;;;;;;53.88;28.70;;;;;;;;;;5042174;28;20101;-66
2022/03/04 14:48:03;;;;;;;42.63;24.27;;;;;;;;;;5041378;28;20467;-64
2022/03/04 14:50:32;;;;;;;40.25;23.95;;;;;;;;;;5043451;28;20021;-63
2022/03/04 14:52:58;;;;;;;43.42;23.50;;;;;;;;;;5042422;28;20072;-64
2022/03/04 14:55:25;;;;;;;46.50;23.90;;;;;;;;;;5034717;28;20045;-63
2022/03/04 14:57:52;;;;;;;40.85;22.27;;;;;;;;;;5038455;28;20037;-64
2022/03/04 15:00:22;;;;;;;40.70;23.95;;;;;;;;;;5050864;28;20146;-65
2022/03/04 15:02:48;;;;;;;36.92;21.30;;;;;;;;;;5052488;28;20021;-64
2022/03/04 15:05:18;;;;;;;43.03;21.63;;;;;;;;;;5038888;28;20730;-64
2022/03/04 15:07:48;;;;;;;40.25;20.55;;;;;;;;;;5032879;28;20061;-64
2022/03/04 15:10:14;;;;;;;36.55;19.65;;;;;;;;;;5037011;28;20033;-64
2022/03/04 15:12:41;;;;;;;27.02;14.50;;;;;;;;;;5040790;28;20029;-64
2022/03/04 15:15:08;;;;;;;36.72;18.33;;;;;;;;;;5041413;28;20025;-64
2022/03/04 15:17:35;;;;;;;36.13;17.02;;;;;;;;;;5035007;28;20084;-66
2022/03/04 15:20:02;;;;;;;34.75;20.08;;;;;;;;;;5050037;28;20488;-64
2022/03/04 15:22:28;;;;;;;45.15;22.17;;;;;;;;;;5052911;28;20089;-65
2022/03/04 15:24:54;;;;;;;33.80;19.55;;;;;;;;;;5034382;28;20030;-66
2022/03/04 15:27:20;;;;;;;35.38;18.52;;;;;;;;;;5037624;28;20041;-67
2022/03/04 15:29:46;;;;;;;34.38;19.20;;;;;;;;;;5042784;28;20493;-66
2022/03/04 15:32:13;;;;;;;33.65;17.63;;;;;;;;;;5034692;28;20025;-64
2022/03/04 15:34:40;;;;;;;33.95;19.25;;;;;;;;;;5041803;28;20021;-66
2022/03/04 15:37:06;;;;;;;39.97;19.95;;;;;;;;;;5041913;28;20033;-66
2022/03/04 15:39:32;;;;;;;28.98;15.75;;;;;;;;;;5047992;28;20100;-65
2022/03/04 15:41:58;;;;;;;32.90;18.17;;;;;;;;;;5048304;28;20489;-67
2022/03/04 15:44:29;;;;;;;30.33;17.00;;;;;;;;;;5028774;28;20542;-65
2022/03/04 15:46:55;;;;;;;31.50;18.15;;;;;;;;;;5031243;28;20051;-64
2022/03/04 15:49:22;;;;;;;37.10;18.45;;;;;;;;;;5048323;28;20116;-66
2022/03/04 15:51:49;;;;;;;29.67;17.25;;;;;;;;;;5051792;28;20017;-65
2022/03/04 15:54:15;;;;;;;30.30;17.77;;;;;;;;;;5051764;28;20077;-66
2022/03/04 15:56:41;;;;;;;44.47;23.48;;;;;;;;;;5051631;28;20104;-66
2022/03/04 15:59:07;;;;;;;43.42;19.98;;;;;;;;;;5051764;28;20083;-66
2022/03/04 16:01:34;;;;;;;34.70;18.35;;;;;;;;;;5038733;28;20021;-68
2022/03/04 16:04:02;;;;;;;37.85;19.38;;;;;;;;;;5030860;28;20025;-67
2022/03/04 16:06:29;;;;;;;33.67;20.55;;;;;;;;;;5039825;28;20048;-66
2022/03/04 16:08:55;;;;;;;23.85;12.25;;;;;;;;;;5050917;28;20036;-67
2022/03/04 16:11:22;;;;;;;29.25;15.43;;;;;;;;;;5038753;28;20428;-72
2022/03/04 16:13:48;;;;;;;26.83;14.98;;;;;;;;;;5030828;28;20480;-69
2022/03/04 16:16:15;;;;;;;31.00;17.35;;;;;;;;;;5031184;28;20032;-67
2022/03/04 16:18:43;;;;;;;30.30;16.48;;;;;;;;;;5031033;28;20030;-68
2022/03/04 16:21:09;;;;;;;30.08;15.45;;;;;;;;;;5049084;28;20048;-67
2022/03/04 16:23:35;;;;;;;28.23;15.82;;;;;;;;;;5039002;28;20026;-68
2022/03/04 16:26:01;;;;;;;24.98;13.98;;;;;;;;;;5036324;28;20028;-67
2022/03/04 16:28:28;;;;;;;25.20;15.27;;;;;;;;;;5038734;28;20124;-68
2022/03/04 16:30:54;;;;;;;24.90;15.15;;;;;;;;;;5037702;28;20030;-63
2022/03/04 16:33:20;;;;;;;28.58;15.50;;;;;;;;;;5037315;28;20431;-68
2022/03/04 16:35:50;;;;;;;27.92;15.50;;;;;;;;;;5033238;28;20021;-67
2022/03/04 16:38:16;;;;;;;29.60;17.35;;;;;;;;;;5031440;28;20033;-69
2022/03/04 16:40:44;;;;;;;26.45;14.52;;;;;;;;;;5037856;28;20356;-65
2022/03/04 16:43:11;;;;;;;26.25;15.48;;;;;;;;;;5036619;28;20434;-68
2022/03/04 16:45:40;;;;;;;25.27;14.10;;;;;;;;;;5038925;28;20026;-68
2022/03/04 16:48:06;;;;;;;25.67;13.70;;;;;;;;;;5039640;28;20052;-65
2022/03/04 16:50:32;;;;;;;27.73;15.32;;;;;;;;;;5034120;28;20029;-68
2022/03/04 16:52:58;;;;;;;30.95;17.60;;;;;;;;;;5031341;28;20550;-67
2022/03/04 16:55:25;;;;;;;27.20;16.15;;;;;;;;;;5036757;28;20049;-68
2022/03/04 16:57:51;;;;;;;34.33;18.02;;;;;;;;;;5036418;28;20033;-69
2022/03/04 17:00:17;;;;;;;33.72;17.92;;;;;;;;;;5031041;28;20109;-71
2022/03/04 17:02:43;;;;;;;32.78;18.35;;;;;;;;;;5030118;28;20060;-69
2022/03/04 17:05:16;;;;;;;31.48;17.50;;;;;;;;;;5041073;28;20087;-67
2022/03/04 17:07:45;;;;;;;34.90;17.58;;;;;;;;;;5034337;28;20064;-69
2022/03/04 17:10:12;;;;;;;32.60;17.67;;;;;;;;;;5029974;28;20049;-69
2022/03/04 17:12:38;;;;;;;38.65;17.98;;;;;;;;;;5029962;28;20087;-69
2022/03/04 17:15:05;;;;;;;34.33;18.52;;;;;;;;;;5032968;28;20100;-66
2022/03/04 17:17:31;;;;;;;37.95;20.38;;;;;;;;;;5037241;28;20032;-70
2022/03/04 17:19:57;;;;;;;34.08;18.05;;;;;;;;;;5035548;28;20029;-69
2022/03/04 17:22:24;;;;;;;40.42;21.02;;;;;;;;;;5041607;28;20115;-69
2022/03/04 17:24:51;;;;;;;35.65;19.52;;;;;;;;;;5030292;28;20025;-70
2022/03/04 17:27:17;;;;;;;49.72;26.73;;;;;;;;;;5041609;28;20041;-74
2022/03/04 17:29:44;;;;;;;43.35;21.42;;;;;;;;;;5044361;28;20430;-72
2022/03/04 17:32:10;;;;;;;44.30;23.20;;;;;;;;;;5039340;28;20029;-71
2022/03/04 17:34:36;;;;;;;43.38;23.92;;;;;;;;;;5039908;28;20021;-71
2022/03/04 17:37:02;;;;;;;33.50;19.35;;;;;;;;;;5039842;28;20024;-69
2022/03/04 17:39:28;;;;;;;38.13;20.98;;;;;;;;;;5038658;28;20703;-71
2022/03/04 17:41:54;;;;;;;34.83;19.45;;;;;;;;;;5038909;28;20535;-66
2022/03/04 17:44:21;;;;;;;41.67;22.60;;;;;;;;;;5047267;28;20033;-68
2022/03/04 17:46:48;;;;;;;61.15;31.42;;;;;;;;;;5047639;28;20064;-72
2022/03/04 17:49:14;;;;;;;40.83;20.67;;;;;;;;;;5040510;28;20084;-73
2022/03/04 17:51:40;;;;;;;192.25;81.85;;;;;;;;;;5038791;28;20021;-66
2022/03/04 17:54:06;;;;;;;67.68;32.40;;;;;;;;;;5039999;28;20028;-72
2022/03/04 17:56:33;;;;;;;49.55;26.23;;;;;;;;;;5045916;28;20044;-70
2022/03/04 17:58:59;;;;;;;48.17;26.40;;;;;;;;;;5034119;28;20404;-67
2022/03/04 18:01:25;;;;;;;53.92;25.85;;;;;;;;;;5049594;28;20039;-71
2022/03/04 18:03:51;;;;;;;61.08;29.70;;;;;;;;;;5050009;28;20033;-70
2022/03/04 18:06:17;;;;;;;63.65;30.77;;;;;;;;;;5039583;28;20038;-70
2022/03/04 18:08:43;;;;;;;62.53;29.00;;;;;;;;;;5033207;28;20075;-71
2022/03/04 18:11:09;;;;;;;64.63;31.75;;;;;;;;;;5043336;28;20029;-68
2022/03/04 18:13:36;;;;;;;59.35;30.23;;;;;;;;;;5042144;28;20745;-75
2022/03/04 18:16:04;;;;;;;62.22;32.42;;;;;;;;;;5042830;28;20197;-71
2022/03/04 18:18:30;;;;;;;64.40;31.23;;;;;;;;;;5043128;28;20021;-67
2022/03/04 18:20:56;;;;;;;61.53;30.95;;;;;;;;;;5041400;28;20397;-69
2022/03/04 18:23:22;;;;;;;60.10;32.05;;;;;;;;;;5039104;28;20013;-65
2022/03/04 18:25:48;;;;;;;60.90;31.13;;;;;;;;;;5047403;28;20064;-68
2022/03/04 18:28:15;;;;;;;59.45;31.08;;;;;;;;;;5044551;28;20037;-67
2022/03/04 18:30:41;;;;;;;55.50;30.48;;;;;;;;;;5043079;28;20547;-68
2022/03/04 18:33:07;;;;;;;58.17;30.52;;;;;;;;;;5039455;28;20031;-64
2022/03/04 18:35:35;;;;;;;54.05;28.25;;;;;;;;;;5040232;28;20022;-63
2022/03/04 18:40:46;;;;;;;77.90;36.92;;;;;;;;;;5034580;28;20040;-65
2022/03/04 18:43:12;;;;;;;70.85;36.50;;;;;;;;;;5050028;28;20068;-66
2022/03/04 18:45:43;;;;;;;90.47;43.80;;;;;;;;;;5043511;28;20694;-65
2022/03/04 18:48:12;;;;;;;108.97;53.13;;;;;;;;;;5033157;28;20057;-63
2022/03/04 18:50:39;;;;;;;124.93;60.25;;;;;;;;;;5032914;28;20029;-62
2022/03/04 18:53:06;;;;;;;84.53;42.17;;;;;;;;;;5020496;28;20098;-61
2022/03/04 18:55:32;;;;;;;85.20;44.00;;;;;;;;;;5044484;28;20033;-63
2022/03/04 18:57:58;;;;;;;84.32;43.10;;;;;;;;;;5043482;28;20047;-63
2022/03/04 19:00:24;;;;;;;83.60;41.13;;;;;;;;;;5048478;28;20027;-64
2022/03/04 19:02:52;;;;;;;98.15;51.00;;;;;;;;;;5052194;28;20037;-63
2022/03/04 19:05:19;;;;;;;77.72;40.33;;;;;;;;;;5052113;28;20353;-64
2022/03/04 19:07:45;;;;;;;80.30;39.33;;;;;;;;;;5048386;28;20044;-65
2022/03/04 19:10:12;;;;;;;75.05;38.83;;;;;;;;;;5033134;28;20037;-64
2022/03/04 19:12:38;;;;;;;81.95;41.08;;;;;;;;;;5032136;28;20545;-69
2022/03/04 19:15:05;;;;;;;67.88;36.85;;;;;;;;;;5031235;28;20040;-67
2022/03/04 19:17:32;;;;;;;50.85;25.02;;;;;;;;;;5032142;28;20029;-62
2022/03/04 19:19:58;;;;;;;58.80;31.17;;;;;;;;;;5035045;28;20089;-62
2022/03/04 19:22:24;;;;;;;67.25;34.67;;;;;;;;;;5040276;28;20025;-63
2022/03/04 19:24:50;;;;;;;76.85;36.58;;;;;;;;;;5041762;28;20021;-62
2022/03/04 19:27:16;;;;;;;65.15;34.20;;;;;;;;;;5040263;28;20631;-62
2022/03/04 19:29:43;;;;;;;71.68;37.83;;;;;;;;;;5039895;28;20057;-62
2022/03/04 19:32:09;;;;;;;69.57;36.60;;;;;;;;;;5041873;28;20021;-61
2022/03/04 19:34:35;;;;;;;40.03;22.02;;;;;;;;;;5036868;28;20041;-62
2022/03/04 19:37:03;;;;;;;47.05;25.73;;;;;;;;;;5034118;28;20030;-61
2022/03/04 19:39:29;;;;;;;65.03;32.90;;;;;;;;;;5032060;28;20034;-62
2022/03/04 19:41:56;;;;;;;52.92;28.92;;;;;;;;;;5031601;28;20508;-62
2022/03/04 19:44:23;;;;;;;47.67;24.30;;;;;;;;;;5031391;28;20108;-62
2022/03/04 19:46:49;;;;;;;41.50;23.65;;;;;;;;;;5031786;28;20044;-61
2022/03/04 19:49:15;;;;;;;46.03;26.33;;;;;;;;;;5032550;28;20104;-62
2022/03/04 19:51:41;;;;;;;51.63;27.88;;;;;;;;;;5030290;28;20039;-62
2022/03/04 19:54:08;;;;;;;46.08;24.35;;;;;;;;;;5031155;28;20572;-62
2022/03/04 19:56:34;;;;;;;51.40;26.75;;;;;;;;;;5031302;28;20030;-65
2022/03/04 19:59:00;;;;;;;54.28;27.58;;;;;;;;;;5033971;28;20025;-62
2022/03/04 20:01:27;;;;;;;55.95;28.05;;;;;;;;;;5046071;28;20037;-62
2022/03/04 20:03:53;;;;;;;57.22;27.42;;;;;;;;;;5051264;28;20035;-65
2022/03/04 20:06:20;;;;;;;58.60;29.42;;;;;;;;;;5038144;28;20104;-64
2022/03/04 20:08:46;;;;;;;60.75;30.50;;;;;;;;;;5031165;28;20033;-62
2022/03/04 20:11:12;;;;;;;51.88;26.73;;;;;;;;;;5031246;28;20083;-63
2022/03/04 20:13:38;;;;;;;44.95;25.77;;;;;;;;;;5030929;28;20040;-63
2022/03/04 20:16:05;;;;;;;49.15;26.13;;;;;;;;;;5036759;28;20021;-63
2022/03/04 20:18:31;;;;;;;62.40;32.35;;;;;;;;;;5042975;28;20029;-62
2022/03/04 20:20:58;;;;;;;66.20;34.38;;;;;;;;;;5041561;28;20032;-62
2022/03/04 20:23:24;;;;;;;57.00;31.73;;;;;;;;;;5043661;28;20489;-62
2022/03/04 20:25:51;;;;;;;62.63;31.75;;;;;;;;;;5048437;28;20027;-62
2022/03/04 20:28:17;;;;;;;59.85;29.95;;;;;;;;;;5041256;28;20041;-63
2022/03/04 20:30:43;;;;;;;65.95;32.30;;;;;;;;;;5038358;28;20025;-62
2022/03/04 20:33:10;;;;;;;66.70;32.92;;;;;;;;;;5040572;28;20033;-62
2022/03/04 20:35:36;;;;;;;60.50;30.25;;;;;;;;;;5044136;28;20059;-63
2022/03/04 20:38:03;;;;;;;52.35;28.33;;;;;;;;;;5047932;28;20020;-63
2022/03/04 20:40:30;;;;;;;57.58;27.70;;;;;;;;;;5044342;28;20034;-62
2022/03/04 20:42:56;;;;;;;52.83;28.65;;;;;;;;;;5047293;28;20041;-63
2022/03/04 20:45:25;;;;;;;56.75;28.60;;;;;;;;;;5030708;28;20615;-65
2022/03/04 20:48:22;;;;;;;53.95;28.95;;;;;;;;;;5010981;28;20054;-64
2022/03/04 20:51:22;;;;;;;55.83;28.70;;;;;;;;;;5022390;28;20095;-66
2022/03/04 20:56:55;;;;;;;52.42;27.60;;;;;;;;;;5035598;28;20195;-65
2022/03/04 20:59:24;;;;;;;57.40;30.75;;;;;;;;;;5030860;28;20079;-63
2022/03/04 21:01:53;;;;;;;53.10;28.38;;;;;;;;;;5030690;28;20048;-64
2022/03/04 21:04:43;;;;;;;51.53;27.58;;;;;;;;;;5030505;28;20090;-63
2022/03/04 21:07:25;;;;;;;51.97;27.30;;;;;;;;;;5030772;28;20052;-62
2022/03/04 21:09:51;;;;;;;51.40;26.63;;;;;;;;;;5030571;28;20480;-62
2022/03/04 21:12:45;;;;;;;49.50;27.13;;;;;;;;;;5030186;28;20026;-63
2022/03/04 21:15:26;;;;;;;48.65;25.25;;;;;;;;;;5030558;28;20029;-64
2022/03/04 21:18:07;;;;;;;50.63;26.90;;;;;;;;;;5029026;28;20037;-63
2022/03/04 21:20:36;;;;;;;51.13;26.83;;;;;;;;;;5032278;28;20029;-66
2022/03/04 21:23:02;;;;;;;47.45;28.25;;;;;;;;;;5039010;28;20377;-66
2022/03/04 21:25:28;;;;;;;58.35;29.90;;;;;;;;;;5035893;28;20025;-65
2022/03/04 21:27:55;;;;;;;54.33;29.50;;;;;;;;;;5030642;28;20061;-64
2022/03/04 21:30:24;;;;;;;54.20;29.58;;;;;;;;;;5036740;28;20028;-63
2022/03/04 21:32:51;;;;;;;61.75;33.10;;;;;;;;;;5033412;28;20037;-62
2022/03/04 21:35:17;;;;;;;56.22;31.35;;;;;;;;;;5029603;28;20018;-65
2022/03/04 21:37:43;;;;;;;61.80;32.65;;;;;;;;;;5032360;28;20037;-66
2022/03/04 21:40:09;;;;;;;60.40;34.40;;;;;;;;;;5029679;28;20549;-65
2022/03/04 21:42:35;;;;;;;58.90;32.15;;;;;;;;;;5029676;28;20030;-66
2022/03/04 21:45:01;;;;;;;64.80;35.53;;;;;;;;;;5037503;28;20465;-65
2022/03/04 21:47:27;;;;;;;70.43;36.70;;;;;;;;;;5034559;28;20053;-64
2022/03/04 21:49:54;;;;;;;64.18;35.88;;;;;;;;;;5029172;28;20072;-64
2022/03/04 21:52:20;;;;;;;70.15;36.67;;;;;;;;;;5038887;28;20048;-66
2022/03/04 21:54:46;;;;;;;67.95;36.10;;;;;;;;;;5040111;28;20029;-67
2022/03/04 21:57:12;;;;;;;67.63;36.85;;;;;;;;;;5036263;28;20108;-66
2022/03/04 21:59:38;;;;;;;67.47;37.30;;;;;;;;;;5037224;28;20041;-64
2022/03/04 22:02:04;;;;;;;66.78;36.13;;;;;;;;;;5029748;28;20488;-64
2022/03/04 22:04:30;;;;;;;63.17;34.70;;;;;;;;;;5030101;28;20033;-65
2022/03/04 22:06:56;;;;;;;61.42;35.70;;;;;;;;;;5029619;28;20060;-64
2022/03/04 22:09:22;;;;;;;61.92;35.20;;;;;;;;;;5029919;28;20033;-65
2022/03/04 22:11:52;;;;;;;73.53;38.08;;;;;;;;;;5030127;28;20040;-65
2022/03/04 22:14:18;;;;;;;72.80;39.33;;;;;;;;;;5029949;28;20033;-65
2022/03/04 22:16:44;;;;;;;74.70;38.92;;;;;;;;;;5030181;28;20116;-66
2022/03/04 22:19:10;;;;;;;77.32;40.95;;;;;;;;;;5048397;28;20029;-65
2022/03/04 22:21:36;;;;;;;79.13;40.58;;;;;;;;;;5049997;28;20025;-64
2022/03/04 22:24:03;;;;;;;74.88;40.03;;;;;;;;;;5049655;28;20025;-63
2022/03/04 22:26:29;;;;;;;97.95;47.25;;;;;;;;;;5049826;28;20036;-64
2022/03/04 22:28:55;;;;;;;96.10;47.88;;;;;;;;;;5049539;28;20036;-63
2022/03/04 22:31:22;;;;;;;91.57;46.08;;;;;;;;;;5049573;28;20025;-67
2022/03/04 22:33:49;;;;;;;77.47;42.13;;;;;;;;;;5049672;28;20037;-64
2022/03/04 22:36:16;;;;;;;74.50;39.63;;;;;;;;;;5049667;28;20024;-64
2022/03/04 22:38:42;;;;;;;76.97;41.25;;;;;;;;;;5049603;28;20408;-64
2022/03/04 22:41:08;;;;;;;80.65;40.60;;;;;;;;;;5050167;28;20502;-64
2022/03/04 22:43:34;;;;;;;80.93;40.35;;;;;;;;;;5049635;28;20021;-64
2022/03/04 22:46:00;;;;;;;76.50;39.70;;;;;;;;;;5034053;28;20038;-64
2022/03/04 22:48:26;;;;;;;64.30;37.20;;;;;;;;;;5029627;28;20107;-63
2022/03/04 22:50:53;;;;;;;69.25;37.65;;;;;;;;;;5029678;28;20029;-65
2022/03/04 22:53:19;;;;;;;68.63;36.90;;;;;;;;;;5029833;28;20115;-65
2022/03/04 22:55:45;;;;;;;67.40;38.97;;;;;;;;;;5032123;28;20036;-65
2022/03/04 22:58:11;;;;;;;71.65;38.63;;;;;;;;;;5038172;28;20030;-64
2022/03/04 23:00:42;;;;;;;72.05;37.40;;;;;;;;;;5042500;28;20028;-65
2022/03/04 23:08:42;;;;;;;76.95;41.30;;;;;;;;;;5045965;28;20045;-67
2022/03/04 23:11:23;;;;;;;79.63;42.53;;;;;;;;;;5043186;28;20017;-63
2022/03/04 23:13:50;;;;;;;61.80;32.58;;;;;;;;;;5041298;28;20036;-64
2022/03/04 23:16:16;;;;;;;77.78;40.65;;;;;;;;;;5040278;28;20029;-64
2022/03/04 23:18:42;;;;;;;74.30;40.88;;;;;;;;;;5039859;28;20034;-66
2022/03/04 23:21:10;;;;;;;76.53;40.20;;;;;;;;;;5032745;28;20057;-66
2022/03/04 23:23:37;;;;;;;70.70;38.63;;;;;;;;;;5037358;28;20052;-66
2022/03/04 23:26:03;;;;;;;69.90;38.10;;;;;;;;;;5045960;28;20034;-66
2022/03/04 23:28:30;;;;;;;71.13;38.35;;;;;;;;;;5052050;28;20044;-64
2022/03/04 23:30:56;;;;;;;69.30;37.83;;;;;;;;;;5051416;28;20025;-65
2022/03/04 23:33:22;;;;;;;72.70;39.05;;;;;;;;;;5051937;28;20033;-66
2022/03/04 23:35:48;;;;;;;75.90;39.95;;;;;;;;;;5052132;28;20044;-65
2022/03/04 23:38:16;;;;;;;79.65;43.15;;;;;;;;;;5051833;28;20033;-66
2022/03/04 23:40:42;;;;;;;69.05;37.60;;;;;;;;;;5052459;28;20460;-65
2022/03/04 23:43:08;;;;;;;64.03;33.72;;;;;;;;;;5029225;28;20033;-65
2022/03/04 23:45:34;;;;;;;75.03;39.20;;;;;;;;;;5025225;28;20025;-65
2022/03/04 23:48:03;;;;;;;76.38;39.72;;;;;;;;;;5029346;28;20049;-65
2022/03/04 23:50:29;;;;;;;76.60;40.75;;;;;;;;;;5040243;28;20024;-65
2022/03/04 23:52:55;;;;;;;75.85;39.25;;;;;;;;;;5031282;28;20124;-64
2022/03/04 23:55:22;;;;;;;54.58;28.95;;;;;;;;;;5022970;28;20014;-65
2022/03/04 23:57:48;;;;;;;58.20;31.85;;;;;;;;;;5021682;28;20040;-65
